PWSweather.com
Personal Weather Stations
Station Observations
AC5CV
Greenleaf Peninsula, Waco, TX 76710

Greenleaf PeninsulaWaco, TX 76710

Lat: 31.565, Lon: -97.198

Elevation: 570

Station Type: Ambient WS2080

http://johnchamber.dyndns.info/

High Low Average
Temperature 96.8°F36.0°C 78.6°F25.9°C 87.2°F30.7°C
Dew Point 75.1°F23.9°C 62.5°F16.9°C 69.6°F20.9°C
Winds 12.3 mph 19.8 kmh 1.1 mph 1.8 kmh 6.0 mph S9.7 kmh S
Wind Gusts 27.5 mph44.3 kmh 4.9 mph7.9 kmh 12.0 mph19.3 kmh
Humidity 89% 33% 59%
Pressure 29.36 in994.2 mb 29.26 in990.9 mb -
Precipitation 0.00 in0.0 mm - -
Hour Temp Dew Point Humidity Winds Wind Gusts Pressure Precip Precip Rate Daily Precip Total
12:00 AM 85.1°F29.5°C 71.5°F21.9°C 64% 7.7 mph SSE12.4 kmh SSE 15.0 mph24.1 kmh 29.28 in991.5 mb 0.00 in0.0 mm 0.00 in0.0 mm 0.00 in0.0 mm
12:05 AM 85.1°F29.5°C 71.5°F21.9°C 64% 9.0 mph S14.5 kmh S 15.0 mph24.1 kmh 29.28 in991.5 mb 0.00 in0.0 mm 0.00 in0.0 mm 0.00 in0.0 mm
12:10 AM 84.9°F29.4°C 71.4°F21.9°C 64% 8.3 mph SSE13.4 kmh SSE 15.0 mph24.1 kmh 29.28 in991.5 mb 0.00 in0.0 mm 0.00 in0.0 mm 0.00 in0.0 mm
12:15 AM 84.7°F29.3°C 71.1°F21.7°C 64% 7.5 mph S12.1 kmh S 17.4 mph28.0 kmh 29.28 in991.5 mb 0.00 in0.0 mm 0.00 in0.0 mm 0.00 in0.0 mm
12:20 AM 84.6°F29.2°C 71.1°F21.7°C 64% 10.3 mph SSE16.6 kmh SSE 17.4 mph28.0 kmh 29.28 in991.5 mb 0.00 in0.0 mm 0.00 in0.0 mm 0.00 in0.0 mm
12:25 AM 84.6°F29.2°C 71.1°F21.7°C 64% 8.8 mph S14.2 kmh S 15.0 mph24.1 kmh 29.28 in991.5 mb 0.00 in0.0 mm 0.00 in0.0 mm 0.00 in0.0 mm
12:30 AM 84.5°F29.2°C 71.1°F21.7°C 64% 5.4 mph S8.7 kmh S 9.8 mph15.8 kmh 29.28 in991.5 mb 0.00 in0.0 mm 0.00 in0.0 mm 0.00 in0.0 mm
12:35 AM 84.2°F29.0°C 71.1°F21.7°C 65% 7.9 mph SSE12.7 kmh SSE 15.0 mph24.1 kmh 29.28 in991.5 mb 0.00 in0.0 mm 0.00 in0.0 mm 0.00 in0.0 mm
12:40 AM 84.2°F29.0°C 71.1°F21.7°C 65% 7.1 mph SSE11.4 kmh SSE 17.4 mph28.0 kmh 29.29 in991.9 mb 0.00 in0.0 mm 0.00 in0.0 mm 0.00 in0.0 mm
12:45 AM 84.0°F28.9°C 70.9°F21.6°C 65% 6.2 mph SSE10.0 kmh SSE 15.0 mph24.1 kmh 29.28 in991.5 mb 0.00 in0.0 mm 0.00 in0.0 mm 0.00 in0.0 mm
12:50 AM 84.0°F28.9°C 70.9°F21.6°C 65% 9.4 mph SE15.1 kmh SE 15.0 mph24.1 kmh 29.28 in991.5 mb 0.00 in0.0 mm 0.00 in0.0 mm 0.00 in0.0 mm
12:55 AM 83.4°F28.6°C 70.6°F21.4°C 66% 5.9 mph S9.5 kmh S 17.4 mph28.0 kmh 29.28 in991.5 mb 0.00 in0.0 mm 0.00 in0.0 mm 0.00 in0.0 mm
01:00 AM 83.3°F28.5°C 70.7°F21.5°C 66% 4.4 mph S7.1 kmh S 7.4 mph11.9 kmh 29.28 in991.5 mb 0.00 in0.0 mm 0.00 in0.0 mm 0.00 in0.0 mm
01:05 AM 83.3°F28.5°C 71.2°F21.8°C 67% 5.8 mph SSW9.3 kmh SSW 15.0 mph24.1 kmh 29.27 in991.2 mb 0.00 in0.0 mm 0.00 in0.0 mm 0.00 in0.0 mm
01:10 AM 83.2°F28.4°C 71.1°F21.7°C 67% 9.6 mph SSE15.4 kmh SSE 17.4 mph28.0 kmh 29.28 in991.5 mb 0.00 in0.0 mm 0.00 in0.0 mm 0.00 in0.0 mm
01:15 AM 82.8°F28.2°C 70.8°F21.6°C 67% 5.3 mph S8.5 kmh S 9.8 mph15.8 kmh 29.28 in991.5 mb 0.00 in0.0 mm 0.00 in0.0 mm 0.00 in0.0 mm
01:20 AM 82.8°F28.2°C 71.1°F21.7°C 68% 6.2 mph S10.0 kmh S 17.4 mph28.0 kmh 29.28 in991.5 mb 0.00 in0.0 mm 0.00 in0.0 mm 0.00 in0.0 mm
01:25 AM 82.8°F28.2°C 71.1°F21.7°C 68% 6.7 mph SSE10.8 kmh SSE 19.9 mph32.0 kmh 29.28 in991.5 mb 0.00 in0.0 mm 0.00 in0.0 mm 0.00 in0.0 mm
01:30 AM 82.6°F28.1°C 71.4°F21.9°C 69% 7.1 mph S11.4 kmh S 12.3 mph19.8 kmh 29.28 in991.5 mb 0.00 in0.0 mm 0.00 in0.0 mm 0.00 in0.0 mm
01:35 AM 82.0°F27.8°C 71.2°F21.8°C 70% 7.2 mph S11.6 kmh S 15.0 mph24.1 kmh 29.28 in991.5 mb 0.00 in0.0 mm 0.00 in0.0 mm 0.00 in0.0 mm
01:40 AM 81.9°F27.7°C 71.1°F21.7°C 70% 8.9 mph SSE14.3 kmh SSE 17.4 mph28.0 kmh 29.28 in991.5 mb 0.00 in0.0 mm 0.00 in0.0 mm 0.00 in0.0 mm
01:45 AM 81.9°F27.7°C 71.4°F21.9°C 71% 10.0 mph SSE16.1 kmh SSE 17.4 mph28.0 kmh 29.28 in991.5 mb 0.00 in0.0 mm 0.00 in0.0 mm 0.00 in0.0 mm
01:50 AM 81.8°F27.7°C 71.5°F21.9°C 71% 8.0 mph SSE12.9 kmh SSE 15.0 mph24.1 kmh 29.28 in991.5 mb 0.00 in0.0 mm 0.00 in0.0 mm 0.00 in0.0 mm
01:55 AM 81.5°F27.5°C 71.4°F21.9°C 72% 9.5 mph SE15.3 kmh SE 19.9 mph32.0 kmh 29.28 in991.5 mb 0.00 in0.0 mm 0.00 in0.0 mm 0.00 in0.0 mm
02:00 AM 81.4°F27.4°C 71.5°F21.9°C 72% 7.1 mph SSE11.4 kmh SSE 12.3 mph19.8 kmh 29.28 in991.5 mb 0.00 in0.0 mm 0.00 in0.0 mm 0.00 in0.0 mm
02:05 AM 81.3°F27.4°C 71.6°F22.0°C 72% 7.9 mph S12.7 kmh S 15.0 mph24.1 kmh 29.29 in991.9 mb 0.00 in0.0 mm 0.00 in0.0 mm 0.00 in0.0 mm
02:10 AM 81.3°F27.4°C 71.8°F22.1°C 73% 6.6 mph S10.6 kmh S 15.0 mph24.1 kmh 29.29 in991.9 mb 0.00 in0.0 mm 0.00 in0.0 mm 0.00 in0.0 mm
02:15 AM 80.8°F27.1°C 71.4°F21.9°C 73% 4.0 mph S6.4 kmh S 9.8 mph15.8 kmh 29.29 in991.9 mb 0.00 in0.0 mm 0.00 in0.0 mm 0.00 in0.0 mm
02:20 AM 80.8°F27.1°C 71.7°F22.1°C 74% 6.6 mph S10.6 kmh S 15.0 mph24.1 kmh 29.29 in991.9 mb 0.00 in0.0 mm 0.00 in0.0 mm 0.00 in0.0 mm
02:25 AM 80.7°F27.1°C 71.6°F22.0°C 74% 5.2 mph S8.4 kmh S 15.0 mph24.1 kmh 29.29 in991.9 mb 0.00 in0.0 mm 0.00 in0.0 mm 0.00 in0.0 mm
02:30 AM 80.6°F27.0°C 71.6°F22.0°C 74% 8.3 mph S13.4 kmh S 15.0 mph24.1 kmh 29.29 in991.9 mb 0.00 in0.0 mm 0.00 in0.0 mm 0.00 in0.0 mm
02:35 AM 80.4°F26.9°C 72.1°F22.3°C 76% 6.2 mph S10.0 kmh S 9.8 mph15.8 kmh 29.29 in991.9 mb 0.00 in0.0 mm 0.00 in0.0 mm 0.00 in0.0 mm
02:40 AM 80.4°F26.9°C 72.1°F22.3°C 76% 6.2 mph S10.0 kmh S 15.0 mph24.1 kmh 29.29 in991.9 mb 0.00 in0.0 mm 0.00 in0.0 mm 0.00 in0.0 mm
02:45 AM 80.2°F26.8°C 72.1°F22.3°C 76% 5.0 mph S8.0 kmh S 7.4 mph11.9 kmh 29.28 in991.5 mb 0.00 in0.0 mm 0.00 in0.0 mm 0.00 in0.0 mm
02:50 AM 80.2°F26.8°C 72.3°F22.4°C 77% 6.0 mph SSE9.7 kmh SSE 12.3 mph19.8 kmh 29.28 in991.5 mb 0.00 in0.0 mm 0.00 in0.0 mm 0.00 in0.0 mm
02:55 AM 79.5°F26.4°C 71.9°F22.2°C 78% 10.7 mph SSE17.2 kmh SSE 17.4 mph28.0 kmh 29.28 in991.5 mb 0.00 in0.0 mm 0.00 in0.0 mm 0.00 in0.0 mm
03:00 AM 79.5°F26.4°C 72.0°F22.2°C 78% 7.1 mph SSE11.4 kmh SSE 12.3 mph19.8 kmh 29.28 in991.5 mb 0.00 in0.0 mm 0.00 in0.0 mm 0.00 in0.0 mm
03:05 AM 79.5°F26.4°C 72.2°F22.3°C 79% 7.2 mph SSE11.6 kmh SSE 17.4 mph28.0 kmh 29.28 in991.5 mb 0.00 in0.0 mm 0.00 in0.0 mm 0.00 in0.0 mm
03:10 AM 79.5°F26.4°C 72.4°F22.4°C 79% 7.5 mph S12.1 kmh S 12.3 mph19.8 kmh 29.28 in991.5 mb 0.00 in0.0 mm 0.00 in0.0 mm 0.00 in0.0 mm
03:15 AM 79.2°F26.2°C 72.1°F22.3°C 79% 7.0 mph S11.3 kmh S 12.3 mph19.8 kmh 29.28 in991.5 mb 0.00 in0.0 mm 0.00 in0.0 mm 0.00 in0.0 mm
03:20 AM 79.2°F26.2°C 72.2°F22.3°C 79% 5.5 mph SSE8.9 kmh SSE 12.3 mph19.8 kmh 29.28 in991.5 mb 0.00 in0.0 mm 0.00 in0.0 mm 0.00 in0.0 mm
03:25 AM 79.2°F26.2°C 72.5°F22.5°C 80% 6.1 mph S9.8 kmh S 15.0 mph24.1 kmh 29.28 in991.5 mb 0.00 in0.0 mm 0.00 in0.0 mm 0.00 in0.0 mm
03:30 AM 79.2°F26.2°C 72.5°F22.5°C 80% 8.3 mph S13.4 kmh S 17.4 mph28.0 kmh 29.28 in991.5 mb 0.00 in0.0 mm 0.00 in0.0 mm 0.00 in0.0 mm
03:35 AM 79.1°F26.2°C 72.4°F22.4°C 80% 7.3 mph S11.7 kmh S 12.3 mph19.8 kmh 29.28 in991.5 mb 0.00 in0.0 mm 0.00 in0.0 mm 0.00 in0.0 mm
03:40 AM 79.0°F26.1°C 72.3°F22.4°C 80% 9.7 mph S15.6 kmh S 17.4 mph28.0 kmh 29.28 in991.5 mb 0.00 in0.0 mm 0.00 in0.0 mm 0.00 in0.0 mm
03:45 AM 79.0°F26.1°C 72.7°F22.6°C 81% 6.7 mph S10.8 kmh S 17.4 mph28.0 kmh 29.28 in991.5 mb 0.00 in0.0 mm 0.00 in0.0 mm 0.00 in0.0 mm
03:50 AM 79.0°F26.1°C 72.7°F22.6°C 81% 5.8 mph SSE9.3 kmh SSE 15.0 mph24.1 kmh 29.28 in991.5 mb 0.00 in0.0 mm 0.00 in0.0 mm 0.00 in0.0 mm
03:55 AM 79.0°F26.1°C 72.7°F22.6°C 81% 6.8 mph S10.9 kmh S 12.3 mph19.8 kmh 29.28 in991.5 mb 0.00 in0.0 mm 0.00 in0.0 mm 0.00 in0.0 mm
04:00 AM 78.9°F26.1°C 72.8°F22.7°C 82% 8.0 mph SSE12.9 kmh SSE 12.3 mph19.8 kmh 29.28 in991.5 mb 0.00 in0.0 mm 0.00 in0.0 mm 0.00 in0.0 mm
04:05 AM 78.8°F26.0°C 72.8°F22.7°C 82% 7.3 mph S11.7 kmh S 15.0 mph24.1 kmh 29.28 in991.5 mb 0.00 in0.0 mm 0.00 in0.0 mm 0.00 in0.0 mm
04:10 AM 78.8°F26.0°C 73.0°F22.8°C 82% 4.7 mph S7.6 kmh S 12.3 mph19.8 kmh 29.28 in991.5 mb 0.00 in0.0 mm 0.00 in0.0 mm 0.00 in0.0 mm
04:15 AM 78.6°F25.9°C 73.0°F22.8°C 83% 2.4 mph S3.9 kmh S 7.4 mph11.9 kmh 29.27 in991.2 mb 0.00 in0.0 mm 0.00 in0.0 mm 0.00 in0.0 mm
04:20 AM 78.6°F25.9°C 73.1°F22.8°C 83% 5.7 mph S9.2 kmh S 9.8 mph15.8 kmh 29.27 in991.2 mb 0.00 in0.0 mm 0.00 in0.0 mm 0.00 in0.0 mm
04:25 AM 78.6°F25.9°C 73.3°F22.9°C 84% 5.8 mph S9.3 kmh S 9.8 mph15.8 kmh 29.27 in991.2 mb 0.00 in0.0 mm 0.00 in0.0 mm 0.00 in0.0 mm
04:30 AM 78.6°F25.9°C 73.1°F22.8°C 83% 8.6 mph SSE13.8 kmh SSE 17.4 mph28.0 kmh 29.28 in991.5 mb 0.00 in0.0 mm 0.00 in0.0 mm 0.00 in0.0 mm
04:35 AM 78.6°F25.9°C 73.3°F22.9°C 84% 4.4 mph S7.1 kmh S 9.8 mph15.8 kmh 29.28 in991.5 mb 0.00 in0.0 mm 0.00 in0.0 mm 0.00 in0.0 mm
04:40 AM 78.6°F25.9°C 73.3°F22.9°C 84% 6.4 mph SSE10.3 kmh SSE 12.3 mph19.8 kmh 29.28 in991.5 mb 0.00 in0.0 mm 0.00 in0.0 mm 0.00 in0.0 mm
04:45 AM 78.6°F25.9°C 73.3°F22.9°C 84% 6.0 mph S9.7 kmh S 12.3 mph19.8 kmh 29.28 in991.5 mb 0.00 in0.0 mm 0.00 in0.0 mm 0.00 in0.0 mm
04:50 AM 78.6°F25.9°C 73.4°F23.0°C 84% 4.3 mph S6.9 kmh S 7.4 mph11.9 kmh 29.28 in991.5 mb 0.00 in0.0 mm 0.00 in0.0 mm 0.00 in0.0 mm
04:55 AM 78.6°F25.9°C 73.7°F23.2°C 85% 4.6 mph SSE7.4 kmh SSE 7.4 mph11.9 kmh 29.28 in991.5 mb 0.00 in0.0 mm 0.00 in0.0 mm 0.00 in0.0 mm
05:00 AM 78.6°F25.9°C 73.7°F23.2°C 85% 4.9 mph S7.9 kmh S 12.3 mph19.8 kmh 29.28 in991.5 mb 0.00 in0.0 mm 0.00 in0.0 mm 0.00 in0.0 mm
05:05 AM 78.6°F25.9°C 73.7°F23.2°C 85% 3.9 mph S6.3 kmh S 9.8 mph15.8 kmh 29.28 in991.5 mb 0.00 in0.0 mm 0.00 in0.0 mm 0.00 in0.0 mm
05:10 AM 78.6°F25.9°C 73.7°F23.2°C 85% 4.9 mph SSE7.9 kmh SSE 9.8 mph15.8 kmh 29.29 in991.9 mb 0.00 in0.0 mm 0.00 in0.0 mm 0.00 in0.0 mm
05:15 AM 78.6°F25.9°C 74.0°F23.3°C 86% 7.4 mph SE11.9 kmh SE 15.0 mph24.1 kmh 29.28 in991.5 mb 0.00 in0.0 mm 0.00 in0.0 mm 0.00 in0.0 mm
05:20 AM 78.6°F25.9°C 74.0°F23.3°C 86% 5.3 mph SE8.5 kmh SE 9.8 mph15.8 kmh 29.28 in991.5 mb 0.00 in0.0 mm 0.00 in0.0 mm 0.00 in0.0 mm
05:25 AM 78.6°F25.9°C 74.0°F23.3°C 86% 3.6 mph SSE5.8 kmh SSE 9.8 mph15.8 kmh 29.29 in991.9 mb 0.00 in0.0 mm 0.00 in0.0 mm 0.00 in0.0 mm
05:30 AM 78.6°F25.9°C 74.0°F23.3°C 86% 5.4 mph S8.7 kmh S 9.8 mph15.8 kmh 29.29 in991.9 mb 0.00 in0.0 mm 0.00 in0.0 mm 0.00 in0.0 mm
05:35 AM 78.6°F25.9°C 74.0°F23.3°C 86% 2.7 mph S4.3 kmh S 7.4 mph11.9 kmh 29.29 in991.9 mb 0.00 in0.0 mm 0.00 in0.0 mm 0.00 in0.0 mm
05:40 AM 78.6°F25.9°C 74.2°F23.4°C 86% 3.0 mph S4.8 kmh S 4.9 mph7.9 kmh 29.30 in992.2 mb 0.00 in0.0 mm 0.00 in0.0 mm 0.00 in0.0 mm
05:45 AM 78.6°F25.9°C 74.4°F23.6°C 87% 4.2 mph SSE6.8 kmh SSE 7.4 mph11.9 kmh 29.30 in992.2 mb 0.00 in0.0 mm 0.00 in0.0 mm 0.00 in0.0 mm
05:50 AM 78.6°F25.9°C 74.4°F23.6°C 87% 1.8 mph SSE2.9 kmh SSE 4.9 mph7.9 kmh 29.30 in992.2 mb 0.00 in0.0 mm 0.00 in0.0 mm 0.00 in0.0 mm
05:55 AM 78.6°F25.9°C 74.4°F23.6°C 87% 5.4 mph SE8.7 kmh SE 9.8 mph15.8 kmh 29.30 in992.2 mb 0.00 in0.0 mm 0.00 in0.0 mm 0.00 in0.0 mm
06:00 AM 78.6°F25.9°C 74.4°F23.6°C 87% 1.8 mph SSW2.9 kmh SSW 7.4 mph11.9 kmh 29.31 in992.6 mb 0.00 in0.0 mm 0.00 in0.0 mm 0.00 in0.0 mm
06:05 AM 78.6°F25.9°C 74.7°F23.7°C 88% 1.9 mph S3.1 kmh S 4.9 mph7.9 kmh 29.31 in992.6 mb 0.00 in0.0 mm 0.00 in0.0 mm 0.00 in0.0 mm
06:10 AM 78.6°F25.9°C 74.7°F23.7°C 88% 1.4 mph SW2.3 kmh SW 4.9 mph7.9 kmh 29.31 in992.6 mb 0.00 in0.0 mm 0.00 in0.0 mm 0.00 in0.0 mm
06:15 AM 78.6°F25.9°C 74.7°F23.7°C 88% 1.1 mph SW1.8 kmh SW 7.4 mph11.9 kmh 29.31 in992.6 mb 0.00 in0.0 mm 0.00 in0.0 mm 0.00 in0.0 mm
06:20 AM 78.6°F25.9°C 74.7°F23.7°C 88% 1.7 mph S2.7 kmh S 4.9 mph7.9 kmh 29.32 in992.9 mb 0.00 in0.0 mm 0.00 in0.0 mm 0.00 in0.0 mm
06:25 AM 78.6°F25.9°C 74.7°F23.7°C 88% 2.2 mph S3.5 kmh S 4.9 mph7.9 kmh 29.32 in992.9 mb 0.00 in0.0 mm 0.00 in0.0 mm 0.00 in0.0 mm
06:30 AM 78.6°F25.9°C 74.7°F23.7°C 88% 2.5 mph S4.0 kmh S 7.4 mph11.9 kmh 29.32 in992.9 mb 0.00 in0.0 mm 0.00 in0.0 mm 0.00 in0.0 mm
06:35 AM 78.6°F25.9°C 74.7°F23.7°C 88% 3.9 mph S6.3 kmh S 9.8 mph15.8 kmh 29.32 in992.9 mb 0.00 in0.0 mm 0.00 in0.0 mm 0.00 in0.0 mm
06:40 AM 78.6°F25.9°C 74.7°F23.7°C 88% 5.1 mph S8.2 kmh S 7.4 mph11.9 kmh 29.32 in992.9 mb 0.00 in0.0 mm 0.00 in0.0 mm 0.00 in0.0 mm
06:45 AM 78.6°F25.9°C 74.7°F23.7°C 88% 4.9 mph SSE7.9 kmh SSE 9.8 mph15.8 kmh 29.32 in992.9 mb 0.00 in0.0 mm 0.00 in0.0 mm 0.00 in0.0 mm
06:50 AM 78.6°F25.9°C 74.7°F23.7°C 88% 4.9 mph SE7.9 kmh SE 9.8 mph15.8 kmh 29.33 in993.2 mb 0.00 in0.0 mm 0.00 in0.0 mm 0.00 in0.0 mm
06:55 AM 78.6°F25.9°C 74.7°F23.7°C 88% 3.9 mph S6.3 kmh S 7.4 mph11.9 kmh 29.32 in992.9 mb 0.00 in0.0 mm 0.00 in0.0 mm 0.00 in0.0 mm
07:00 AM 78.6°F25.9°C 74.7°F23.7°C 88% 4.4 mph SSE7.1 kmh SSE 7.4 mph11.9 kmh 29.33 in993.2 mb 0.00 in0.0 mm 0.00 in0.0 mm 0.00 in0.0 mm
07:05 AM 78.6°F25.9°C 74.7°F23.7°C 88% 4.7 mph S7.6 kmh S 7.4 mph11.9 kmh 29.32 in992.9 mb 0.00 in0.0 mm 0.00 in0.0 mm 0.00 in0.0 mm
07:10 AM 78.6°F25.9°C 75.1°F23.9°C 89% 4.1 mph S6.6 kmh S 9.8 mph15.8 kmh 29.33 in993.2 mb 0.00 in0.0 mm 0.00 in0.0 mm 0.00 in0.0 mm
07:15 AM 78.6°F25.9°C 75.1°F23.9°C 89% 4.2 mph SSE6.8 kmh SSE 7.4 mph11.9 kmh 29.33 in993.2 mb 0.00 in0.0 mm 0.00 in0.0 mm 0.00 in0.0 mm
07:20 AM 78.6°F25.9°C 74.9°F23.8°C 88% 4.8 mph S7.7 kmh S 12.3 mph19.8 kmh 29.33 in993.2 mb 0.00 in0.0 mm 0.00 in0.0 mm 0.00 in0.0 mm
07:25 AM 78.6°F25.9°C 74.7°F23.7°C 88% 5.2 mph S8.4 kmh S 15.0 mph24.1 kmh 29.33 in993.2 mb 0.00 in0.0 mm 0.00 in0.0 mm 0.00 in0.0 mm
07:30 AM 78.6°F25.9°C 74.4°F23.6°C 87% 4.6 mph S7.4 kmh S 9.8 mph15.8 kmh 29.33 in993.2 mb 0.00 in0.0 mm 0.00 in0.0 mm 0.00 in0.0 mm
07:35 AM 78.6°F25.9°C 74.2°F23.4°C 86% 6.4 mph SSE10.3 kmh SSE 9.8 mph15.8 kmh 29.34 in993.6 mb 0.00 in0.0 mm 0.00 in0.0 mm 0.00 in0.0 mm
07:40 AM 78.6°F25.9°C 74.4°F23.6°C 87% 3.2 mph SSE5.1 kmh SSE 7.4 mph11.9 kmh 29.34 in993.6 mb 0.00 in0.0 mm 0.00 in0.0 mm 0.00 in0.0 mm
07:45 AM 78.6°F25.9°C 74.4°F23.6°C 87% 4.3 mph S6.9 kmh S 9.8 mph15.8 kmh 29.34 in993.6 mb 0.00 in0.0 mm 0.00 in0.0 mm 0.00 in0.0 mm
07:50 AM 78.6°F25.9°C 74.6°F23.7°C 88% 4.0 mph SSE6.4 kmh SSE 9.8 mph15.8 kmh 29.34 in993.6 mb 0.00 in0.0 mm 0.00 in0.0 mm 0.00 in0.0 mm
07:55 AM 78.6°F25.9°C 74.7°F23.7°C 88% 5.0 mph SSE8.0 kmh SSE 12.3 mph19.8 kmh 29.34 in993.6 mb 0.00 in0.0 mm 0.00 in0.0 mm 0.00 in0.0 mm
08:00 AM 78.6°F25.9°C 74.4°F23.6°C 87% 6.0 mph S9.7 kmh S 9.8 mph15.8 kmh 29.34 in993.6 mb 0.00 in0.0 mm 0.00 in0.0 mm 0.00 in0.0 mm
08:05 AM 78.6°F25.9°C 74.0°F23.3°C 86% 4.1 mph S6.6 kmh S 7.4 mph11.9 kmh 29.34 in993.6 mb 0.00 in0.0 mm 0.00 in0.0 mm 0.00 in0.0 mm
08:10 AM 78.6°F25.9°C 74.0°F23.3°C 86% 5.1 mph SSE8.2 kmh SSE 7.4 mph11.9 kmh 29.34 in993.6 mb 0.00 in0.0 mm 0.00 in0.0 mm 0.00 in0.0 mm
08:15 AM 78.6°F25.9°C 73.7°F23.2°C 85% 4.4 mph S7.1 kmh S 7.4 mph11.9 kmh 29.34 in993.6 mb 0.00 in0.0 mm 0.00 in0.0 mm 0.00 in0.0 mm
08:20 AM 79.3°F26.3°C 74.0°F23.3°C 84% 7.3 mph S11.7 kmh S 9.8 mph15.8 kmh 29.34 in993.6 mb 0.00 in0.0 mm 0.00 in0.0 mm 0.00 in0.0 mm
08:25 AM 79.4°F26.3°C 73.7°F23.2°C 83% 5.7 mph S9.2 kmh S 12.3 mph19.8 kmh 29.35 in993.9 mb 0.00 in0.0 mm 0.00 in0.0 mm 0.00 in0.0 mm
08:30 AM 79.5°F26.4°C 73.9°F23.3°C 83% 7.2 mph S11.6 kmh S 12.3 mph19.8 kmh 29.35 in993.9 mb 0.00 in0.0 mm 0.00 in0.0 mm 0.00 in0.0 mm
08:35 AM 79.5°F26.4°C 73.7°F23.2°C 82% 4.1 mph SSE6.6 kmh SSE 9.8 mph15.8 kmh 29.35 in993.9 mb 0.00 in0.0 mm 0.00 in0.0 mm 0.00 in0.0 mm
08:40 AM 80.8°F27.1°C 74.3°F23.5°C 81% 3.9 mph S6.3 kmh S 12.3 mph19.8 kmh 29.35 in993.9 mb 0.00 in0.0 mm 0.00 in0.0 mm 0.00 in0.0 mm
08:45 AM 80.8°F27.1°C 73.7°F23.2°C 79% 6.1 mph S9.8 kmh S 12.3 mph19.8 kmh 29.35 in993.9 mb 0.00 in0.0 mm 0.00 in0.0 mm 0.00 in0.0 mm
08:50 AM 81.0°F27.2°C 73.4°F23.0°C 78% 4.7 mph SE7.6 kmh SE 12.3 mph19.8 kmh 29.36 in994.2 mb 0.00 in0.0 mm 0.00 in0.0 mm 0.00 in0.0 mm
08:55 AM 81.2°F27.3°C 72.8°F22.7°C 76% 8.0 mph S12.9 kmh S 15.0 mph24.1 kmh 29.35 in993.9 mb 0.00 in0.0 mm 0.00 in0.0 mm 0.00 in0.0 mm
09:00 AM 82.8°F28.2°C 73.8°F23.2°C 74% 9.4 mph SSE15.1 kmh SSE 15.0 mph24.1 kmh 29.35 in993.9 mb 0.00 in0.0 mm 0.00 in0.0 mm 0.00 in0.0 mm
09:05 AM 82.8°F28.2°C 73.5°F23.1°C 74% 4.6 mph SW7.4 kmh SW 7.4 mph11.9 kmh 29.35 in993.9 mb 0.00 in0.0 mm 0.00 in0.0 mm 0.00 in0.0 mm
09:10 AM 82.8°F28.2°C 73.0°F22.8°C 72% 3.8 mph S6.1 kmh S 7.4 mph11.9 kmh 29.36 in994.2 mb 0.00 in0.0 mm 0.00 in0.0 mm 0.00 in0.0 mm
09:15 AM 82.8°F28.2°C 73.3°F22.9°C 73% 2.7 mph S4.3 kmh S 7.4 mph11.9 kmh 29.36 in994.2 mb 0.00 in0.0 mm 0.00 in0.0 mm 0.00 in0.0 mm
09:20 AM 82.8°F28.2°C 73.2°F22.9°C 73% 4.2 mph S6.8 kmh S 7.4 mph11.9 kmh 29.36 in994.2 mb 0.00 in0.0 mm 0.00 in0.0 mm 0.00 in0.0 mm
09:25 AM 82.8°F28.2°C 73.4°F23.0°C 74% 4.6 mph SSW7.4 kmh SSW 15.0 mph24.1 kmh 29.36 in994.2 mb 0.00 in0.0 mm 0.00 in0.0 mm 0.00 in0.0 mm
09:30 AM 82.8°F28.2°C 73.6°F23.1°C 74% 2.9 mph S4.7 kmh S 12.3 mph19.8 kmh 29.36 in994.2 mb 0.00 in0.0 mm 0.00 in0.0 mm 0.00 in0.0 mm
09:35 AM 82.8°F28.2°C 73.0°F22.8°C 72% 2.6 mph SSW4.2 kmh SSW 4.9 mph7.9 kmh 29.36 in994.2 mb 0.00 in0.0 mm 0.00 in0.0 mm 0.00 in0.0 mm
09:40 AM 84.9°F29.4°C 73.4°F23.0°C 69% 4.8 mph S7.7 kmh S 12.3 mph19.8 kmh 29.35 in993.9 mb 0.00 in0.0 mm 0.00 in0.0 mm 0.00 in0.0 mm
09:45 AM 84.8°F29.3°C 73.5°F23.1°C 69% 7.8 mph SSE12.6 kmh SSE 15.0 mph24.1 kmh 29.35 in993.9 mb 0.00 in0.0 mm 0.00 in0.0 mm 0.00 in0.0 mm
09:50 AM 84.7°F29.3°C 74.0°F23.3°C 70% 3.9 mph S6.3 kmh S 7.4 mph11.9 kmh 29.36 in994.2 mb 0.00 in0.0 mm 0.00 in0.0 mm 0.00 in0.0 mm
09:55 AM 84.8°F29.3°C 72.4°F22.4°C 67% 4.3 mph S6.9 kmh S 9.8 mph15.8 kmh 29.36 in994.2 mb 0.00 in0.0 mm 0.00 in0.0 mm 0.00 in0.0 mm
10:00 AM 85.6°F29.8°C 72.2°F22.3°C 64% 7.6 mph SSE12.2 kmh SSE 12.3 mph19.8 kmh 29.36 in994.2 mb 0.00 in0.0 mm 0.00 in0.0 mm 0.00 in0.0 mm
10:05 AM 86.0°F30.0°C 71.5°F21.9°C 62% 5.9 mph S9.5 kmh S 12.3 mph19.8 kmh 29.36 in994.2 mb 0.00 in0.0 mm 0.00 in0.0 mm 0.00 in0.0 mm
10:10 AM 86.0°F30.0°C 70.8°F21.6°C 61% 8.5 mph SSE13.7 kmh SSE 19.9 mph32.0 kmh 29.36 in994.2 mb 0.00 in0.0 mm 0.00 in0.0 mm 0.00 in0.0 mm
10:15 AM 86.2°F30.1°C 70.4°F21.3°C 60% 6.5 mph S10.5 kmh S 12.3 mph19.8 kmh 29.36 in994.2 mb 0.00 in0.0 mm 0.00 in0.0 mm 0.00 in0.0 mm
10:20 AM 87.4°F30.8°C 69.7°F20.9°C 56% 5.2 mph S8.4 kmh S 17.4 mph28.0 kmh 29.36 in994.2 mb 0.00 in0.0 mm 0.00 in0.0 mm 0.00 in0.0 mm
10:25 AM 87.4°F30.8°C 69.2°F20.7°C 55% 4.3 mph SW6.9 kmh SW 7.4 mph11.9 kmh 29.36 in994.2 mb 0.00 in0.0 mm 0.00 in0.0 mm 0.00 in0.0 mm
10:30 AM 87.4°F30.8°C 69.5°F20.8°C 56% 4.5 mph SSW7.2 kmh SSW 15.0 mph24.1 kmh 29.36 in994.2 mb 0.00 in0.0 mm 0.00 in0.0 mm 0.00 in0.0 mm
10:35 AM 87.3°F30.7°C 70.2°F21.2°C 57% 8.5 mph S13.7 kmh S 15.0 mph24.1 kmh 29.36 in994.2 mb 0.00 in0.0 mm 0.00 in0.0 mm 0.00 in0.0 mm
10:40 AM 87.2°F30.7°C 69.7°F20.9°C 56% 7.8 mph S12.6 kmh S 17.4 mph28.0 kmh 29.36 in994.2 mb 0.00 in0.0 mm 0.00 in0.0 mm 0.00 in0.0 mm
10:45 AM 87.1°F30.6°C 69.2°F20.7°C 56% 4.8 mph SW7.7 kmh SW 12.3 mph19.8 kmh 29.36 in994.2 mb 0.00 in0.0 mm 0.00 in0.0 mm 0.00 in0.0 mm
10:50 AM 87.2°F30.7°C 68.4°F20.2°C 54% 4.4 mph SW7.1 kmh SW 7.4 mph11.9 kmh 29.36 in994.2 mb 0.00 in0.0 mm 0.00 in0.0 mm 0.00 in0.0 mm
10:55 AM 87.3°F30.7°C 68.2°F20.1°C 53% 7.1 mph S11.4 kmh S 15.0 mph24.1 kmh 29.36 in994.2 mb 0.00 in0.0 mm 0.00 in0.0 mm 0.00 in0.0 mm
11:00 AM 87.4°F30.8°C 69.3°F20.7°C 55% 5.1 mph SSW8.2 kmh SSW 12.3 mph19.8 kmh 29.35 in993.9 mb 0.00 in0.0 mm 0.00 in0.0 mm 0.00 in0.0 mm
11:05 AM 87.6°F30.9°C 68.9°F20.5°C 54% 6.4 mph S10.3 kmh S 12.3 mph19.8 kmh 29.36 in994.2 mb 0.00 in0.0 mm 0.00 in0.0 mm 0.00 in0.0 mm
11:10 AM 87.8°F31.0°C 69.0°F20.6°C 54% 8.8 mph SSW14.2 kmh SSW 15.0 mph24.1 kmh 29.36 in994.2 mb 0.00 in0.0 mm 0.00 in0.0 mm 0.00 in0.0 mm
11:15 AM 87.9°F31.1°C 68.9°F20.5°C 54% 4.4 mph SSW7.1 kmh SSW 7.4 mph11.9 kmh 29.36 in994.2 mb 0.00 in0.0 mm 0.00 in0.0 mm 0.00 in0.0 mm
11:20 AM 88.6°F31.4°C 68.9°F20.5°C 52% 7.7 mph SSW12.4 kmh SSW 17.4 mph28.0 kmh 29.36 in994.2 mb 0.00 in0.0 mm 0.00 in0.0 mm 0.00 in0.0 mm
11:25 AM 88.9°F31.6°C 69.2°F20.7°C 52% 5.9 mph S9.5 kmh S 15.0 mph24.1 kmh 29.36 in994.2 mb 0.00 in0.0 mm 0.00 in0.0 mm 0.00 in0.0 mm
11:30 AM 89.0°F31.7°C 68.1°F20.1°C 50% 4.7 mph SW7.6 kmh SW 12.3 mph19.8 kmh 29.36 in994.2 mb 0.00 in0.0 mm 0.00 in0.0 mm 0.00 in0.0 mm
11:35 AM 89.1°F31.7°C 67.9°F19.9°C 50% 6.0 mph SW9.7 kmh SW 12.3 mph19.8 kmh 29.36 in994.2 mb 0.00 in0.0 mm 0.00 in0.0 mm 0.00 in0.0 mm
11:40 AM 89.5°F31.9°C 68.4°F20.2°C 50% 5.8 mph S9.3 kmh S 9.8 mph15.8 kmh 29.36 in994.2 mb 0.00 in0.0 mm 0.00 in0.0 mm 0.00 in0.0 mm
11:45 AM 89.9°F32.2°C 68.7°F20.4°C 50% 5.6 mph SSE9.0 kmh SSE 9.8 mph15.8 kmh 29.36 in994.2 mb 0.00 in0.0 mm 0.00 in0.0 mm 0.00 in0.0 mm
11:50 AM 90.0°F32.2°C 68.1°F20.1°C 49% 3.4 mph S5.5 kmh S 7.4 mph11.9 kmh 29.36 in994.2 mb 0.00 in0.0 mm 0.00 in0.0 mm 0.00 in0.0 mm
11:55 AM 90.1°F32.3°C 68.3°F20.2°C 49% 3.6 mph S5.8 kmh S 7.4 mph11.9 kmh 29.36 in994.2 mb 0.00 in0.0 mm 0.00 in0.0 mm 0.00 in0.0 mm
12:00 PM 90.6°F32.6°C 67.9°F19.9°C 48% 5.9 mph SSW9.5 kmh SSW 19.9 mph32.0 kmh 29.35 in993.9 mb 0.00 in0.0 mm 0.00 in0.0 mm 0.00 in0.0 mm
12:05 PM 91.1°F32.8°C 67.5°F19.7°C 46% 3.3 mph S5.3 kmh S 9.8 mph15.8 kmh 29.36 in994.2 mb 0.00 in0.0 mm 0.00 in0.0 mm 0.00 in0.0 mm
12:10 PM 91.3°F32.9°C 66.8°F19.3°C 45% 4.5 mph SSW7.2 kmh SSW 7.4 mph11.9 kmh 29.35 in993.9 mb 0.00 in0.0 mm 0.00 in0.0 mm 0.00 in0.0 mm
12:15 PM 91.4°F33.0°C 67.3°F19.6°C 46% 3.3 mph SW5.3 kmh SW 7.4 mph11.9 kmh 29.36 in994.2 mb 0.00 in0.0 mm 0.00 in0.0 mm 0.00 in0.0 mm
12:20 PM 91.6°F33.1°C 67.4°F19.7°C 45% 4.7 mph SW7.6 kmh SW 9.8 mph15.8 kmh 29.35 in993.9 mb 0.00 in0.0 mm 0.00 in0.0 mm 0.00 in0.0 mm
12:25 PM 91.6°F33.1°C 68.0°F20.0°C 46% 4.8 mph SW7.7 kmh SW 9.8 mph15.8 kmh 29.35 in993.9 mb 0.00 in0.0 mm 0.00 in0.0 mm 0.00 in0.0 mm
12:30 PM 91.6°F33.1°C 69.3°F20.7°C 48% 6.3 mph S10.1 kmh S 12.3 mph19.8 kmh 29.35 in993.9 mb 0.00 in0.0 mm 0.00 in0.0 mm 0.00 in0.0 mm
12:35 PM 91.6°F33.1°C 67.8°F19.9°C 46% 2.0 mph SW3.2 kmh SW 7.4 mph11.9 kmh 29.35 in993.9 mb 0.00 in0.0 mm 0.00 in0.0 mm 0.00 in0.0 mm
12:40 PM 92.1°F33.4°C 67.9°F19.9°C 45% 5.8 mph SW9.3 kmh SW 9.8 mph15.8 kmh 29.35 in993.9 mb 0.00 in0.0 mm 0.00 in0.0 mm 0.00 in0.0 mm
12:45 PM 92.9°F33.8°C 67.8°F19.9°C 44% 3.8 mph SSE6.1 kmh SSE 9.8 mph15.8 kmh 29.35 in993.9 mb 0.00 in0.0 mm 0.00 in0.0 mm 0.00 in0.0 mm
12:50 PM 93.0°F33.9°C 67.5°F19.7°C 44% 4.9 mph SSW7.9 kmh SSW 12.3 mph19.8 kmh 29.35 in993.9 mb 0.00 in0.0 mm 0.00 in0.0 mm 0.00 in0.0 mm
12:55 PM 93.0°F33.9°C 68.4°F20.2°C 45% 4.1 mph S6.6 kmh S 9.8 mph15.8 kmh 29.34 in993.6 mb 0.00 in0.0 mm 0.00 in0.0 mm 0.00 in0.0 mm
01:00 PM 93.0°F33.9°C 67.9°F19.9°C 44% 3.8 mph S6.1 kmh S 7.4 mph11.9 kmh 29.34 in993.6 mb 0.00 in0.0 mm 0.00 in0.0 mm 0.00 in0.0 mm
01:05 PM 92.9°F33.8°C 67.8°F19.9°C 44% 5.2 mph SW8.4 kmh SW 9.8 mph15.8 kmh 29.34 in993.6 mb 0.00 in0.0 mm 0.00 in0.0 mm 0.00 in0.0 mm
01:10 PM 92.8°F33.8°C 67.9°F19.9°C 44% 3.5 mph SSW5.6 kmh SSW 9.8 mph15.8 kmh 29.34 in993.6 mb 0.00 in0.0 mm 0.00 in0.0 mm 0.00 in0.0 mm
01:15 PM 92.8°F33.8°C 68.0°F20.0°C 44% 3.0 mph S4.8 kmh S 7.4 mph11.9 kmh 29.34 in993.6 mb 0.00 in0.0 mm 0.00 in0.0 mm 0.00 in0.0 mm
01:20 PM 92.8°F33.8°C 67.3°F19.6°C 43% 5.4 mph S8.7 kmh S 12.3 mph19.8 kmh 29.34 in993.6 mb 0.00 in0.0 mm 0.00 in0.0 mm 0.00 in0.0 mm
01:25 PM 93.0°F33.9°C 68.9°F20.5°C 46% 6.0 mph SSE9.7 kmh SSE 12.3 mph19.8 kmh 29.34 in993.6 mb 0.00 in0.0 mm 0.00 in0.0 mm 0.00 in0.0 mm
01:30 PM 93.0°F33.9°C 68.1°F20.1°C 44% 6.9 mph S11.1 kmh S 22.4 mph36.0 kmh 29.34 in993.6 mb 0.00 in0.0 mm 0.00 in0.0 mm 0.00 in0.0 mm
01:35 PM 93.0°F33.9°C 67.8°F19.9°C 44% 4.4 mph SW7.1 kmh SW 12.3 mph19.8 kmh 29.34 in993.6 mb 0.00 in0.0 mm 0.00 in0.0 mm 0.00 in0.0 mm
01:40 PM 92.6°F33.7°C 68.7°F20.4°C 46% 11.1 mph SSE17.9 kmh SSE 17.4 mph28.0 kmh 29.34 in993.6 mb 0.00 in0.0 mm 0.00 in0.0 mm 0.00 in0.0 mm
01:45 PM 92.1°F33.4°C 67.5°F19.7°C 45% 4.3 mph S6.9 kmh S 7.4 mph11.9 kmh 29.33 in993.2 mb 0.00 in0.0 mm 0.00 in0.0 mm 0.00 in0.0 mm
01:50 PM 92.4°F33.6°C 66.0°F18.9°C 42% 5.3 mph SSW8.5 kmh SSW 15.0 mph24.1 kmh 29.33 in993.2 mb 0.00 in0.0 mm 0.00 in0.0 mm 0.00 in0.0 mm
01:55 PM 92.6°F33.7°C 67.0°F19.4°C 43% 7.2 mph SSE11.6 kmh SSE 17.4 mph28.0 kmh 29.33 in993.2 mb 0.00 in0.0 mm 0.00 in0.0 mm 0.00 in0.0 mm
02:00 PM 93.0°F33.9°C 67.0°F19.4°C 43% 2.4 mph SW3.9 kmh SW 4.9 mph7.9 kmh 29.32 in992.9 mb 0.00 in0.0 mm 0.00 in0.0 mm 0.00 in0.0 mm
02:05 PM 94.1°F34.5°C 67.8°F19.9°C 42% 4.4 mph S7.1 kmh S 9.8 mph15.8 kmh 29.33 in993.2 mb 0.00 in0.0 mm 0.00 in0.0 mm 0.00 in0.0 mm
02:10 PM 94.1°F34.5°C 67.7°F19.8°C 42% 3.6 mph SSW5.8 kmh SSW 7.4 mph11.9 kmh 29.32 in992.9 mb 0.00 in0.0 mm 0.00 in0.0 mm 0.00 in0.0 mm
02:15 PM 94.0°F34.4°C 67.4°F19.7°C 42% 3.0 mph SSW4.8 kmh SSW 9.8 mph15.8 kmh 29.32 in992.9 mb 0.00 in0.0 mm 0.00 in0.0 mm 0.00 in0.0 mm
02:20 PM 93.9°F34.4°C 67.4°F19.7°C 42% 3.5 mph SSW5.6 kmh SSW 4.9 mph7.9 kmh 29.32 in992.9 mb 0.00 in0.0 mm 0.00 in0.0 mm 0.00 in0.0 mm
02:25 PM 94.8°F34.9°C 67.3°F19.6°C 41% 3.5 mph SW5.6 kmh SW 12.3 mph19.8 kmh 29.32 in992.9 mb 0.00 in0.0 mm 0.00 in0.0 mm 0.00 in0.0 mm
02:30 PM 94.8°F34.9°C 66.9°F19.4°C 40% 3.4 mph SW5.5 kmh SW 9.8 mph15.8 kmh 29.32 in992.9 mb 0.00 in0.0 mm 0.00 in0.0 mm 0.00 in0.0 mm
02:35 PM 94.7°F34.8°C 66.0°F18.9°C 39% 3.2 mph S5.1 kmh S 7.4 mph11.9 kmh 29.32 in992.9 mb 0.00 in0.0 mm 0.00 in0.0 mm 0.00 in0.0 mm
02:40 PM 94.8°F34.9°C 65.9°F18.8°C 39% 4.8 mph SE7.7 kmh SE 12.3 mph19.8 kmh 29.31 in992.6 mb 0.00 in0.0 mm 0.00 in0.0 mm 0.00 in0.0 mm
02:45 PM 94.5°F34.7°C 67.5°F19.7°C 42% 8.5 mph S13.7 kmh S 15.0 mph24.1 kmh 29.31 in992.6 mb 0.00 in0.0 mm 0.00 in0.0 mm 0.00 in0.0 mm
02:50 PM 94.5°F34.7°C 66.6°F19.2°C 40% 5.9 mph S9.5 kmh S 19.9 mph32.0 kmh 29.31 in992.6 mb 0.00 in0.0 mm 0.00 in0.0 mm 0.00 in0.0 mm
02:55 PM 94.6°F34.8°C 65.1°F18.4°C 38% 3.6 mph SSW5.8 kmh SSW 7.4 mph11.9 kmh 29.31 in992.6 mb 0.00 in0.0 mm 0.00 in0.0 mm 0.00 in0.0 mm
03:00 PM 94.7°F34.8°C 65.7°F18.7°C 39% 6.2 mph SSE10.0 kmh SSE 15.0 mph24.1 kmh 29.30 in992.2 mb 0.00 in0.0 mm 0.00 in0.0 mm 0.00 in0.0 mm
03:05 PM 95.5°F35.3°C 66.5°F19.2°C 39% 5.4 mph SE8.7 kmh SE 12.3 mph19.8 kmh 29.30 in992.2 mb 0.00 in0.0 mm 0.00 in0.0 mm 0.00 in0.0 mm
03:10 PM 95.5°F35.3°C 66.7°F19.3°C 39% 7.7 mph S12.4 kmh S 15.0 mph24.1 kmh 29.30 in992.2 mb 0.00 in0.0 mm 0.00 in0.0 mm 0.00 in0.0 mm
03:15 PM 95.6°F35.3°C 65.8°F18.8°C 38% 4.8 mph S7.7 kmh S 9.8 mph15.8 kmh 29.30 in992.2 mb 0.00 in0.0 mm 0.00 in0.0 mm 0.00 in0.0 mm
03:20 PM 95.8°F35.4°C 65.0°F18.3°C 37% 5.7 mph S9.2 kmh S 17.4 mph28.0 kmh 29.30 in992.2 mb 0.00 in0.0 mm 0.00 in0.0 mm 0.00 in0.0 mm
03:25 PM 95.9°F35.5°C 64.7°F18.2°C 36% 3.1 mph S5.0 kmh S 9.8 mph15.8 kmh 29.29 in991.9 mb 0.00 in0.0 mm 0.00 in0.0 mm 0.00 in0.0 mm
03:30 PM 96.0°F35.6°C 64.0°F17.8°C 35% 3.8 mph SSW6.1 kmh SSW 7.4 mph11.9 kmh 29.29 in991.9 mb 0.00 in0.0 mm 0.00 in0.0 mm 0.00 in0.0 mm
03:35 PM 96.3°F35.7°C 64.8°F18.2°C 36% 7.8 mph S12.6 kmh S 17.4 mph28.0 kmh 29.29 in991.9 mb 0.00 in0.0 mm 0.00 in0.0 mm 0.00 in0.0 mm
03:40 PM 96.3°F35.7°C 65.0°F18.3°C 36% 5.6 mph SSW9.0 kmh SSW 17.4 mph28.0 kmh 29.30 in992.2 mb 0.00 in0.0 mm 0.00 in0.0 mm 0.00 in0.0 mm
03:45 PM 96.8°F36.0°C 65.1°F18.4°C 36% 4.6 mph SSE7.4 kmh SSE 9.8 mph15.8 kmh 29.29 in991.9 mb 0.00 in0.0 mm 0.00 in0.0 mm 0.00 in0.0 mm
03:50 PM 96.6°F35.9°C 66.5°F19.2°C 38% 8.0 mph SSE12.9 kmh SSE 17.4 mph28.0 kmh 29.29 in991.9 mb 0.00 in0.0 mm 0.00 in0.0 mm 0.00 in0.0 mm
03:55 PM 96.4°F35.8°C 65.9°F18.8°C 37% 4.0 mph SW6.4 kmh SW 7.4 mph11.9 kmh 29.29 in991.9 mb 0.00 in0.0 mm 0.00 in0.0 mm 0.00 in0.0 mm
04:00 PM 96.4°F35.8°C 64.8°F18.2°C 36% 3.8 mph S6.1 kmh S 9.8 mph15.8 kmh 29.29 in991.9 mb 0.00 in0.0 mm 0.00 in0.0 mm 0.00 in0.0 mm
04:05 PM 96.6°F35.9°C 64.4°F18.0°C 35% 3.5 mph SW5.6 kmh SW 4.9 mph7.9 kmh 29.29 in991.9 mb 0.00 in0.0 mm 0.00 in0.0 mm 0.00 in0.0 mm
04:10 PM 96.6°F35.9°C 64.0°F17.8°C 34% 4.5 mph S7.2 kmh S 17.4 mph28.0 kmh 29.29 in991.9 mb 0.00 in0.0 mm 0.00 in0.0 mm 0.00 in0.0 mm
04:15 PM 96.8°F36.0°C 64.3°F17.9°C 35% 6.0 mph S9.7 kmh S 15.0 mph24.1 kmh 29.28 in991.5 mb 0.00 in0.0 mm 0.00 in0.0 mm 0.00 in0.0 mm
04:20 PM 96.8°F36.0°C 64.8°F18.2°C 35% 7.9 mph S12.7 kmh S 19.9 mph32.0 kmh 29.28 in991.5 mb 0.00 in0.0 mm 0.00 in0.0 mm 0.00 in0.0 mm
04:25 PM 96.6°F35.9°C 65.2°F18.4°C 36% 6.9 mph S11.1 kmh S 12.3 mph19.8 kmh 29.28 in991.5 mb 0.00 in0.0 mm 0.00 in0.0 mm 0.00 in0.0 mm
04:30 PM 96.4°F35.8°C 65.3°F18.5°C 36% 7.6 mph S12.2 kmh S 15.0 mph24.1 kmh 29.28 in991.5 mb 0.00 in0.0 mm 0.00 in0.0 mm 0.00 in0.0 mm
04:35 PM 96.4°F35.8°C 64.7°F18.2°C 36% 8.1 mph SSE13.0 kmh SSE 17.4 mph28.0 kmh 29.28 in991.5 mb 0.00 in0.0 mm 0.00 in0.0 mm 0.00 in0.0 mm
04:40 PM 96.3°F35.7°C 64.8°F18.2°C 36% 8.1 mph S13.0 kmh S 15.0 mph24.1 kmh 29.28 in991.5 mb 0.00 in0.0 mm 0.00 in0.0 mm 0.00 in0.0 mm
04:45 PM 96.1°F35.6°C 64.8°F18.2°C 36% 7.1 mph SSE11.4 kmh SSE 12.3 mph19.8 kmh 29.28 in991.5 mb 0.00 in0.0 mm 0.00 in0.0 mm 0.00 in0.0 mm
04:50 PM 96.1°F35.6°C 63.8°F17.7°C 35% 4.6 mph S7.4 kmh S 12.3 mph19.8 kmh 29.28 in991.5 mb 0.00 in0.0 mm 0.00 in0.0 mm 0.00 in0.0 mm
04:55 PM 96.1°F35.6°C 63.0°F17.2°C 34% 2.8 mph SW4.5 kmh SW 7.4 mph11.9 kmh 29.28 in991.5 mb 0.00 in0.0 mm 0.00 in0.0 mm 0.00 in0.0 mm
05:00 PM 96.3°F35.7°C 62.5°F16.9°C 33% 2.9 mph S4.7 kmh S 9.8 mph15.8 kmh 29.28 in991.5 mb 0.00 in0.0 mm 0.00 in0.0 mm 0.00 in0.0 mm
05:05 PM 96.5°F35.8°C 63.1°F17.3°C 34% 4.1 mph S6.6 kmh S 7.4 mph11.9 kmh 29.28 in991.5 mb 0.00 in0.0 mm 0.00 in0.0 mm 0.00 in0.0 mm
05:10 PM 96.4°F35.8°C 64.8°F18.2°C 36% 5.1 mph S8.2 kmh S 9.8 mph15.8 kmh 29.28 in991.5 mb 0.00 in0.0 mm 0.00 in0.0 mm 0.00 in0.0 mm
05:15 PM 96.2°F35.7°C 65.1°F18.4°C 36% 7.6 mph SSE12.2 kmh SSE 15.0 mph24.1 kmh 29.27 in991.2 mb 0.00 in0.0 mm 0.00 in0.0 mm 0.00 in0.0 mm
05:20 PM 95.9°F35.5°C 66.1°F18.9°C 38% 5.6 mph SE9.0 kmh SE 9.8 mph15.8 kmh 29.28 in991.5 mb 0.00 in0.0 mm 0.00 in0.0 mm 0.00 in0.0 mm
05:25 PM 95.1°F35.1°C 65.4°F18.6°C 38% 3.4 mph S5.5 kmh S 7.4 mph11.9 kmh 29.28 in991.5 mb 0.00 in0.0 mm 0.00 in0.0 mm 0.00 in0.0 mm
05:30 PM 94.6°F34.8°C 65.3°F18.5°C 38% 2.6 mph SSW4.2 kmh SSW 7.4 mph11.9 kmh 29.27 in991.2 mb 0.00 in0.0 mm 0.00 in0.0 mm 0.00 in0.0 mm
05:35 PM 94.6°F34.8°C 65.4°F18.6°C 38% 2.5 mph S4.0 kmh S 4.9 mph7.9 kmh 29.28 in991.5 mb 0.00 in0.0 mm 0.00 in0.0 mm 0.00 in0.0 mm
05:40 PM 94.6°F34.8°C 65.3°F18.5°C 38% 6.6 mph SSE10.6 kmh SSE 9.8 mph15.8 kmh 29.27 in991.2 mb 0.00 in0.0 mm 0.00 in0.0 mm 0.00 in0.0 mm
05:45 PM 94.5°F34.7°C 65.7°F18.7°C 39% 4.2 mph SE6.8 kmh SE 9.8 mph15.8 kmh 29.27 in991.2 mb 0.00 in0.0 mm 0.00 in0.0 mm 0.00 in0.0 mm
05:50 PM 94.5°F34.7°C 65.7°F18.7°C 39% 5.3 mph S8.5 kmh S 12.3 mph19.8 kmh 29.27 in991.2 mb 0.00 in0.0 mm 0.00 in0.0 mm 0.00 in0.0 mm
05:55 PM 94.3°F34.6°C 65.0°F18.3°C 38% 4.1 mph S6.6 kmh S 12.3 mph19.8 kmh 29.27 in991.2 mb 0.00 in0.0 mm 0.00 in0.0 mm 0.00 in0.0 mm
06:00 PM 94.3°F34.6°C 65.6°F18.7°C 39% 2.1 mph S3.4 kmh S 7.4 mph11.9 kmh 29.27 in991.2 mb 0.00 in0.0 mm 0.00 in0.0 mm 0.00 in0.0 mm
06:05 PM 94.2°F34.6°C 65.7°F18.7°C 39% 2.4 mph S3.9 kmh S 7.4 mph11.9 kmh 29.26 in990.9 mb 0.00 in0.0 mm 0.00 in0.0 mm 0.00 in0.0 mm
06:10 PM 93.9°F34.4°C 65.9°F18.8°C 40% 3.0 mph SSE4.8 kmh SSE 12.3 mph19.8 kmh 29.27 in991.2 mb 0.00 in0.0 mm 0.00 in0.0 mm 0.00 in0.0 mm
06:15 PM 93.9°F34.4°C 65.1°F18.4°C 39% 3.3 mph S5.3 kmh S 7.4 mph11.9 kmh 29.27 in991.2 mb 0.00 in0.0 mm 0.00 in0.0 mm 0.00 in0.0 mm
06:20 PM 93.9°F34.4°C 65.1°F18.4°C 39% 1.8 mph SSW2.9 kmh SSW 4.9 mph7.9 kmh 29.27 in991.2 mb 0.00 in0.0 mm 0.00 in0.0 mm 0.00 in0.0 mm
06:25 PM 94.0°F34.4°C 64.0°F17.8°C 37% 7.1 mph S11.4 kmh S 12.3 mph19.8 kmh 29.27 in991.2 mb 0.00 in0.0 mm 0.00 in0.0 mm 0.00 in0.0 mm
06:30 PM 94.1°F34.5°C 63.8°F17.7°C 37% 6.3 mph S10.1 kmh S 9.8 mph15.8 kmh 29.27 in991.2 mb 0.00 in0.0 mm 0.00 in0.0 mm 0.00 in0.0 mm
06:35 PM 94.1°F34.5°C 63.8°F17.7°C 37% 6.8 mph SSE10.9 kmh SSE 12.3 mph19.8 kmh 29.27 in991.2 mb 0.00 in0.0 mm 0.00 in0.0 mm 0.00 in0.0 mm
06:40 PM 94.1°F34.5°C 63.8°F17.7°C 37% 5.4 mph S8.7 kmh S 9.8 mph15.8 kmh 29.26 in990.9 mb 0.00 in0.0 mm 0.00 in0.0 mm 0.00 in0.0 mm
06:45 PM 94.1°F34.5°C 64.4°F18.0°C 38% 4.2 mph SSE6.8 kmh SSE 9.8 mph15.8 kmh 29.26 in990.9 mb 0.00 in0.0 mm 0.00 in0.0 mm 0.00 in0.0 mm
06:50 PM 94.1°F34.5°C 64.6°F18.1°C 38% 6.5 mph SSE10.5 kmh SSE 15.0 mph24.1 kmh 29.26 in990.9 mb 0.00 in0.0 mm 0.00 in0.0 mm 0.00 in0.0 mm
06:55 PM 94.1°F34.5°C 64.6°F18.1°C 38% 4.5 mph SSE7.2 kmh SSE 9.8 mph15.8 kmh 29.26 in990.9 mb 0.00 in0.0 mm 0.00 in0.0 mm 0.00 in0.0 mm
07:00 PM 94.1°F34.5°C 64.6°F18.1°C 38% 9.1 mph SSE14.6 kmh SSE 17.4 mph28.0 kmh 29.26 in990.9 mb 0.00 in0.0 mm 0.00 in0.0 mm 0.00 in0.0 mm
07:05 PM 94.4°F34.7°C 64.4°F18.0°C 37% 4.9 mph S7.9 kmh S 9.8 mph15.8 kmh 29.26 in990.9 mb 0.00 in0.0 mm 0.00 in0.0 mm 0.00 in0.0 mm
07:10 PM 94.6°F34.8°C 65.0°F18.3°C 38% 7.6 mph S12.2 kmh S 12.3 mph19.8 kmh 29.26 in990.9 mb 0.00 in0.0 mm 0.00 in0.0 mm 0.00 in0.0 mm
07:15 PM 94.6°F34.8°C 64.5°F18.1°C 37% 6.0 mph S9.7 kmh S 12.3 mph19.8 kmh 29.26 in990.9 mb 0.00 in0.0 mm 0.00 in0.0 mm 0.00 in0.0 mm
07:20 PM 94.6°F34.8°C 64.7°F18.2°C 38% 7.0 mph SSE11.3 kmh SSE 12.3 mph19.8 kmh 29.26 in990.9 mb 0.00 in0.0 mm 0.00 in0.0 mm 0.00 in0.0 mm
07:25 PM 94.6°F34.8°C 64.8°F18.2°C 38% 5.2 mph S8.4 kmh S 12.3 mph19.8 kmh 29.26 in990.9 mb 0.00 in0.0 mm 0.00 in0.0 mm 0.00 in0.0 mm
07:30 PM 94.4°F34.7°C 64.8°F18.2°C 38% 5.6 mph SSE9.0 kmh SSE 12.3 mph19.8 kmh 29.26 in990.9 mb 0.00 in0.0 mm 0.00 in0.0 mm 0.00 in0.0 mm
07:35 PM 94.3°F34.6°C 65.2°F18.4°C 39% 6.5 mph S10.5 kmh S 12.3 mph19.8 kmh 29.26 in990.9 mb 0.00 in0.0 mm 0.00 in0.0 mm 0.00 in0.0 mm
07:40 PM 94.2°F34.6°C 65.8°F18.8°C 40% 5.4 mph SSE8.7 kmh SSE 9.8 mph15.8 kmh 29.26 in990.9 mb 0.00 in0.0 mm 0.00 in0.0 mm 0.00 in0.0 mm
07:45 PM 94.0°F34.4°C 65.9°F18.8°C 40% 5.1 mph SSE8.2 kmh SSE 7.4 mph11.9 kmh 29.26 in990.9 mb 0.00 in0.0 mm 0.00 in0.0 mm 0.00 in0.0 mm
07:50 PM 93.3°F34.1°C 65.3°F18.5°C 40% 5.5 mph S8.9 kmh S 9.8 mph15.8 kmh 29.26 in990.9 mb 0.00 in0.0 mm 0.00 in0.0 mm 0.00 in0.0 mm
07:55 PM 93.2°F34.0°C 66.5°F19.2°C 42% 3.8 mph SE6.1 kmh SE 7.4 mph11.9 kmh 29.26 in990.9 mb 0.00 in0.0 mm 0.00 in0.0 mm 0.00 in0.0 mm
08:00 PM 93.2°F34.0°C 66.4°F19.1°C 42% 7.3 mph SE11.7 kmh SE 12.3 mph19.8 kmh 29.26 in990.9 mb 0.00 in0.0 mm 0.00 in0.0 mm 0.00 in0.0 mm
08:05 PM 93.1°F33.9°C 66.2°F19.0°C 42% 6.1 mph SSE9.8 kmh SSE 9.8 mph15.8 kmh 29.27 in991.2 mb 0.00 in0.0 mm 0.00 in0.0 mm 0.00 in0.0 mm
08:10 PM 92.8°F33.8°C 66.3°F19.1°C 42% 3.0 mph S4.8 kmh S 4.9 mph7.9 kmh 29.27 in991.2 mb 0.00 in0.0 mm 0.00 in0.0 mm 0.00 in0.0 mm
08:15 PM 92.7°F33.7°C 66.2°F19.0°C 42% 5.6 mph S9.0 kmh S 9.8 mph15.8 kmh 29.27 in991.2 mb 0.00 in0.0 mm 0.00 in0.0 mm 0.00 in0.0 mm
08:20 PM 92.7°F33.7°C 66.2°F19.0°C 42% 3.6 mph SSE5.8 kmh SSE 7.4 mph11.9 kmh 29.27 in991.2 mb 0.00 in0.0 mm 0.00 in0.0 mm 0.00 in0.0 mm
08:25 PM 92.4°F33.6°C 66.2°F19.0°C 42% 4.4 mph SE7.1 kmh SE 9.8 mph15.8 kmh 29.27 in991.2 mb 0.00 in0.0 mm 0.00 in0.0 mm 0.00 in0.0 mm
08:30 PM 91.9°F33.3°C 66.2°F19.0°C 43% 2.9 mph S4.7 kmh S 7.4 mph11.9 kmh 29.28 in991.5 mb 0.00 in0.0 mm 0.00 in0.0 mm 0.00 in0.0 mm
08:35 PM 91.9°F33.3°C 66.2°F19.0°C 43% 4.9 mph SSE7.9 kmh SSE 7.4 mph11.9 kmh 29.28 in991.5 mb 0.00 in0.0 mm 0.00 in0.0 mm 0.00 in0.0 mm
08:40 PM 91.9°F33.3°C 66.1°F18.9°C 43% 2.6 mph S4.2 kmh S 4.9 mph7.9 kmh 29.28 in991.5 mb 0.00 in0.0 mm 0.00 in0.0 mm 0.00 in0.0 mm
08:45 PM 91.8°F33.2°C 66.5°F19.2°C 44% 2.4 mph SSE3.9 kmh SSE 7.4 mph11.9 kmh 29.28 in991.5 mb 0.00 in0.0 mm 0.00 in0.0 mm 0.00 in0.0 mm
08:50 PM 91.2°F32.9°C 66.8°F19.3°C 45% 3.1 mph S5.0 kmh S 4.9 mph7.9 kmh 29.28 in991.5 mb 0.00 in0.0 mm 0.00 in0.0 mm 0.00 in0.0 mm
08:55 PM 91.0°F32.8°C 66.7°F19.3°C 45% 2.7 mph SSE4.3 kmh SSE 4.9 mph7.9 kmh 29.28 in991.5 mb 0.00 in0.0 mm 0.00 in0.0 mm 0.00 in0.0 mm
09:00 PM 91.0°F32.8°C 67.0°F19.4°C 46% 4.2 mph SE6.8 kmh SE 7.4 mph11.9 kmh 29.28 in991.5 mb 0.00 in0.0 mm 0.00 in0.0 mm 0.00 in0.0 mm
09:05 PM 91.0°F32.8°C 67.4°F19.7°C 46% 7.3 mph SSE11.7 kmh SSE 15.0 mph24.1 kmh 29.28 in991.5 mb 0.00 in0.0 mm 0.00 in0.0 mm 0.00 in0.0 mm
09:10 PM 91.0°F32.8°C 68.2°F20.1°C 47% 5.8 mph SSE9.3 kmh SSE 9.8 mph15.8 kmh 29.28 in991.5 mb 0.00 in0.0 mm 0.00 in0.0 mm 0.00 in0.0 mm
09:15 PM 91.0°F32.8°C 68.6°F20.3°C 48% 6.3 mph SSE10.1 kmh SSE 12.3 mph19.8 kmh 29.28 in991.5 mb 0.00 in0.0 mm 0.00 in0.0 mm 0.00 in0.0 mm
09:20 PM 90.9°F32.7°C 69.1°F20.6°C 49% 7.3 mph SSE11.7 kmh SSE 15.0 mph24.1 kmh 29.28 in991.5 mb 0.00 in0.0 mm 0.00 in0.0 mm 0.00 in0.0 mm
09:25 PM 90.8°F32.7°C 69.4°F20.8°C 50% 12.1 mph SSE19.5 kmh SSE 22.4 mph36.0 kmh 29.28 in991.5 mb 0.00 in0.0 mm 0.00 in0.0 mm 0.00 in0.0 mm
09:30 PM 90.0°F32.2°C 69.2°F20.7°C 51% 7.2 mph SSE11.6 kmh SSE 12.3 mph19.8 kmh 29.28 in991.5 mb 0.00 in0.0 mm 0.00 in0.0 mm 0.00 in0.0 mm
09:35 PM 90.0°F32.2°C 69.8°F21.0°C 52% 8.8 mph SE14.2 kmh SE 15.0 mph24.1 kmh 29.28 in991.5 mb 0.00 in0.0 mm 0.00 in0.0 mm 0.00 in0.0 mm
09:40 PM 90.0°F32.2°C 70.0°F21.1°C 52% 9.8 mph SSE15.8 kmh SSE 17.4 mph28.0 kmh 29.28 in991.5 mb 0.00 in0.0 mm 0.00 in0.0 mm 0.00 in0.0 mm
09:45 PM 89.8°F32.1°C 70.3°F21.3°C 53% 9.2 mph SSE14.8 kmh SSE 17.4 mph28.0 kmh 29.28 in991.5 mb 0.00 in0.0 mm 0.00 in0.0 mm 0.00 in0.0 mm
09:50 PM 89.2°F31.8°C 70.3°F21.3°C 54% 8.4 mph SE13.5 kmh SE 15.0 mph24.1 kmh 29.28 in991.5 mb 0.00 in0.0 mm 0.00 in0.0 mm 0.00 in0.0 mm
09:55 PM 89.2°F31.8°C 70.3°F21.3°C 54% 8.4 mph S13.5 kmh S 12.3 mph19.8 kmh 29.28 in991.5 mb 0.00 in0.0 mm 0.00 in0.0 mm 0.00 in0.0 mm
10:00 PM 89.2°F31.8°C 70.3°F21.3°C 54% 9.6 mph S15.4 kmh S 22.4 mph36.0 kmh 29.29 in991.9 mb 0.00 in0.0 mm 0.00 in0.0 mm 0.00 in0.0 mm
10:05 PM 89.2°F31.8°C 70.5°F21.4°C 54% 9.5 mph S15.3 kmh S 17.4 mph28.0 kmh 29.29 in991.9 mb 0.00 in0.0 mm 0.00 in0.0 mm 0.00 in0.0 mm
10:10 PM 89.0°F31.7°C 70.1°F21.2°C 54% 8.5 mph SSE13.7 kmh SSE 17.4 mph28.0 kmh 29.28 in991.5 mb 0.00 in0.0 mm 0.00 in0.0 mm 0.00 in0.0 mm
10:15 PM 88.9°F31.6°C 70.1°F21.2°C 54% 7.5 mph SSE12.1 kmh SSE 17.4 mph28.0 kmh 29.29 in991.9 mb 0.00 in0.0 mm 0.00 in0.0 mm 0.00 in0.0 mm
10:20 PM 88.9°F31.6°C 70.1°F21.2°C 54% 7.9 mph SSE12.7 kmh SSE 12.3 mph19.8 kmh 29.29 in991.9 mb 0.00 in0.0 mm 0.00 in0.0 mm 0.00 in0.0 mm
10:25 PM 88.8°F31.6°C 70.5°F21.4°C 55% 8.4 mph SSE13.5 kmh SSE 15.0 mph24.1 kmh 29.29 in991.9 mb 0.00 in0.0 mm 0.00 in0.0 mm 0.00 in0.0 mm
10:30 PM 88.3°F31.3°C 70.0°F21.1°C 55% 8.6 mph SSE13.8 kmh SSE 12.3 mph19.8 kmh 29.29 in991.9 mb 0.00 in0.0 mm 0.00 in0.0 mm 0.00 in0.0 mm
10:35 PM 88.2°F31.2°C 69.4°F20.8°C 54% 7.8 mph S12.6 kmh S 22.4 mph36.0 kmh 29.29 in991.9 mb 0.00 in0.0 mm 0.00 in0.0 mm 0.00 in0.0 mm
10:40 PM 88.2°F31.2°C 69.4°F20.8°C 54% 10.4 mph SSE16.7 kmh SSE 19.9 mph32.0 kmh 29.30 in992.2 mb 0.00 in0.0 mm 0.00 in0.0 mm 0.00 in0.0 mm
10:45 PM 88.2°F31.2°C 69.4°F20.8°C 54% 9.7 mph SE15.6 kmh SE 22.4 mph36.0 kmh 29.30 in992.2 mb 0.00 in0.0 mm 0.00 in0.0 mm 0.00 in0.0 mm
10:50 PM 87.9°F31.1°C 69.1°F20.6°C 54% 9.3 mph SSE15.0 kmh SSE 15.0 mph24.1 kmh 29.30 in992.2 mb 0.00 in0.0 mm 0.00 in0.0 mm 0.00 in0.0 mm
10:55 PM 87.7°F30.9°C 69.0°F20.6°C 54% 11.3 mph SSE18.2 kmh SSE 19.9 mph32.0 kmh 29.31 in992.6 mb 0.00 in0.0 mm 0.00 in0.0 mm 0.00 in0.0 mm
11:00 PM 87.6°F30.9°C 69.4°F20.8°C 55% 12.3 mph S19.8 kmh S 27.5 mph44.3 kmh 29.31 in992.6 mb 0.00 in0.0 mm 0.00 in0.0 mm 0.00 in0.0 mm
11:05 PM 87.6°F30.9°C 69.4°F20.8°C 55% 8.2 mph S13.2 kmh S 15.0 mph24.1 kmh 29.31 in992.6 mb 0.00 in0.0 mm 0.00 in0.0 mm 0.00 in0.0 mm
11:10 PM 87.4°F30.8°C 69.2°F20.7°C 55% 7.1 mph S11.4 kmh S 15.0 mph24.1 kmh 29.31 in992.6 mb 0.00 in0.0 mm 0.00 in0.0 mm 0.00 in0.0 mm
11:15 PM 87.3°F30.7°C 69.6°F20.9°C 56% 7.5 mph S12.1 kmh S 15.0 mph24.1 kmh 29.31 in992.6 mb 0.00 in0.0 mm 0.00 in0.0 mm 0.00 in0.0 mm
11:20 PM 87.3°F30.7°C 69.7°F20.9°C 56% 6.0 mph SSE9.7 kmh SSE 12.3 mph19.8 kmh 29.31 in992.6 mb 0.00 in0.0 mm 0.00 in0.0 mm 0.00 in0.0 mm
11:25 PM 87.2°F30.7°C 69.7°F20.9°C 56% 8.7 mph S14.0 kmh S 24.8 mph39.9 kmh 29.31 in992.6 mb 0.00 in0.0 mm 0.00 in0.0 mm 0.00 in0.0 mm
11:30 PM 86.7°F30.4°C 69.6°F20.9°C 57% 8.4 mph SE13.5 kmh SE 22.4 mph36.0 kmh 29.31 in992.6 mb 0.00 in0.0 mm 0.00 in0.0 mm 0.00 in0.0 mm
11:35 PM 86.5°F30.3°C 69.5°F20.8°C 57% 6.2 mph S10.0 kmh S 12.3 mph19.8 kmh 29.31 in992.6 mb 0.00 in0.0 mm 0.00 in0.0 mm 0.00 in0.0 mm
11:40 PM 86.5°F30.3°C 69.9°F21.1°C 58% 9.4 mph SSE15.1 kmh SSE 19.9 mph32.0 kmh 29.31 in992.6 mb 0.00 in0.0 mm 0.00 in0.0 mm 0.00 in0.0 mm
11:45 PM 86.5°F30.3°C 69.9°F21.1°C 58% 10.6 mph S17.1 kmh S 17.4 mph28.0 kmh 29.31 in992.6 mb 0.00 in0.0 mm 0.00 in0.0 mm 0.00 in0.0 mm
11:50 PM 86.3°F30.2°C 69.9°F21.1°C 58% 11.8 mph SE19.0 kmh SE 19.9 mph32.0 kmh 29.31 in992.6 mb 0.00 in0.0 mm 0.00 in0.0 mm 0.00 in0.0 mm
11:55 PM 86.0°F30.0°C 70.0°F21.1°C 59% 8.6 mph S13.8 kmh S 19.9 mph32.0 kmh 29.31 in992.6 mb 0.00 in0.0 mm 0.00 in0.0 mm 0.00 in0.0 mm